createdAt,value
2018-06-30T00:02:24.361Z,17.43
2018-06-30T00:04:54.197Z,17.57
2018-06-30T00:07:23.912Z,18.30
2018-06-30T00:09:52.974Z,18.07
2018-06-30T00:12:22.017Z,17.70
2018-06-30T00:14:51.136Z,17.77
2018-06-30T00:17:20.158Z,19.10
2018-06-30T00:19:49.234Z,18.40
2018-06-30T00:22:18.109Z,19.83
2018-06-30T00:24:46.853Z,17.67
2018-06-30T00:27:21.465Z,18.23
2018-06-30T00:29:50.570Z,23.73
2018-06-30T00:32:20.016Z,19.00
2018-06-30T00:34:49.773Z,20.33
2018-06-30T00:37:18.896Z,20.27
2018-06-30T00:39:48.764Z,21.20
2018-06-30T00:42:17.986Z,23.87
2018-06-30T00:44:46.924Z,21.23
2018-06-30T00:47:16.915Z,22.33
2018-06-30T00:49:45.881Z,21.80
2018-06-30T00:52:14.897Z,20.87
2018-06-30T00:54:43.845Z,21.00
2018-06-30T00:57:12.871Z,20.70
2018-06-30T00:59:42.437Z,19.90
2018-06-30T01:02:12.349Z,21.50
2018-06-30T01:04:42.047Z,20.90
2018-06-30T01:07:11.726Z,22.57
2018-06-30T01:09:41.197Z,21.80
2018-06-30T01:12:10.274Z,20.73
2018-06-30T01:14:39.098Z,20.20
2018-06-30T01:17:08.412Z,20.77
2018-06-30T01:19:37.292Z,21.00
2018-06-30T01:22:06.381Z,19.80
2018-06-30T01:24:35.340Z,19.90
2018-06-30T01:27:04.168Z,21.50
2018-06-30T01:29:33.535Z,21.37
2018-06-30T01:32:02.516Z,21.07
2018-06-30T01:34:31.371Z,21.53
2018-06-30T01:37:00.231Z,21.13
2018-06-30T01:39:29.149Z,22.93
2018-06-30T01:41:58.690Z,21.77
2018-06-30T01:44:28.683Z,23.03
2018-06-30T01:46:58.333Z,24.17
2018-06-30T01:49:27.237Z,23.80
2018-06-30T01:51:56.770Z,23.37
2018-06-30T01:54:25.512Z,24.20
2018-06-30T01:56:54.521Z,25.03
2018-06-30T01:59:23.337Z,24.03
2018-06-30T02:01:52.312Z,24.90
2018-06-30T02:04:21.262Z,25.30
2018-06-30T02:06:50.321Z,26.30
2018-06-30T02:09:19.194Z,24.77
2018-06-30T02:11:48.921Z,24.40
2018-06-30T02:14:17.844Z,24.87
2018-06-30T02:16:46.675Z,26.67
2018-06-30T02:19:15.583Z,26.93
2018-06-30T02:21:45.391Z,27.87
2018-06-30T02:24:15.395Z,31.57
2018-06-30T02:26:44.304Z,32.03
2018-06-30T02:29:14.167Z,31.97
2018-06-30T02:31:44.645Z,28.93
2018-06-30T02:34:13.503Z,27.23
2018-06-30T02:36:42.505Z,24.77
2018-06-30T02:39:11.631Z,24.40
2018-06-30T02:41:40.430Z,25.27
2018-06-30T02:44:09.262Z,25.57
2018-06-30T02:46:38.635Z,22.20
2018-06-30T02:49:07.591Z,21.97
2018-06-30T02:51:36.449Z,22.87
2018-06-30T02:54:05.768Z,22.50
2018-06-30T02:56:34.782Z,23.70
2018-06-30T02:59:03.601Z,24.40
2018-06-30T03:01:34.311Z,24.90
2018-06-30T03:04:04.069Z,25.00
2018-06-30T03:06:33.507Z,27.47
2018-06-30T03:09:02.420Z,26.57
2018-06-30T03:11:31.311Z,26.03
2018-06-30T03:14:00.189Z,28.37
2018-06-30T03:16:29.233Z,31.30
2018-06-30T03:18:59.117Z,32.60
2018-06-30T03:21:28.854Z,31.20
2018-06-30T03:23:58.088Z,34.07
2018-06-30T03:26:27.262Z,36.70
2018-06-30T03:28:56.255Z,39.23
2018-06-30T03:31:25.043Z,35.87
2018-06-30T03:33:54.049Z,31.73
2018-06-30T03:36:23.015Z,31.40
2018-06-30T03:38:52.023Z,33.10
2018-06-30T03:41:20.936Z,31.37
2018-06-30T03:43:49.934Z,28.93
2018-06-30T03:46:18.971Z,29.27
2018-06-30T03:48:48.861Z,27.87
2018-06-30T03:51:18.315Z,26.87
2018-06-30T03:53:47.707Z,26.33
2018-06-30T03:56:16.602Z,26.67
2018-06-30T03:58:46.148Z,26.90
2018-06-30T04:01:15.043Z,31.60
2018-06-30T04:03:44.347Z,29.57
2018-06-30T04:06:13.506Z,28.50
2018-06-30T04:08:42.341Z,26.77
2018-06-30T04:11:11.631Z,27.30
2018-06-30T04:13:41.316Z,27.70
2018-06-30T04:16:10.728Z,27.03
2018-06-30T04:18:39.728Z,26.83
2018-06-30T04:21:09.009Z,24.67
2018-06-30T04:23:37.706Z,26.13
2018-06-30T04:26:06.933Z,23.00
2018-06-30T04:28:35.660Z,24.43
2018-06-30T04:31:04.313Z,24.23
2018-06-30T04:33:33.757Z,23.20
2018-06-30T04:36:02.603Z,21.60
2018-06-30T04:38:31.523Z,21.87
2018-06-30T04:41:00.912Z,24.50
2018-06-30T04:43:29.885Z,20.60
2018-06-30T04:45:59.001Z,21.73
2018-06-30T04:48:27.762Z,20.40
2018-06-30T04:50:57.073Z,22.97
2018-06-30T04:53:26.271Z,21.63
2018-06-30T04:55:55.381Z,24.27
2018-06-30T04:58:24.313Z,26.50
2018-06-30T05:00:54.850Z,23.20
2018-06-30T05:03:24.285Z,26.37
2018-06-30T05:05:53.070Z,23.03
2018-06-30T05:08:22.478Z,21.03
2018-06-30T05:10:51.840Z,19.77
2018-06-30T05:13:21.344Z,21.00
2018-06-30T05:15:50.646Z,19.87
2018-06-30T05:18:20.299Z,19.70
2018-06-30T05:26:35.176Z,19.77
2018-06-30T05:29:04.506Z,18.40
2018-06-30T05:31:33.427Z,19.23
2018-06-30T05:34:02.034Z,18.00
2018-06-30T05:36:31.178Z,19.13
2018-06-30T05:39:00.344Z,18.10
2018-06-30T05:44:26.238Z,20.90
2018-06-30T05:46:55.235Z,19.70
2018-06-30T05:49:24.397Z,21.47
2018-06-30T05:51:53.348Z,23.47
2018-06-30T05:54:22.720Z,24.67
2018-06-30T05:56:51.627Z,22.37
2018-06-30T05:59:21.279Z,25.73
2018-06-30T06:01:50.193Z,22.37
2018-06-30T06:04:19.144Z,22.23
2018-06-30T06:06:48.302Z,20.77
2018-06-30T06:09:18.174Z,19.00
2018-06-30T06:11:47.414Z,18.17
2018-06-30T06:14:16.104Z,20.33
2018-06-30T06:16:45.155Z,20.83
2018-06-30T06:19:15.298Z,20.80
2018-06-30T06:21:46.474Z,22.33
2018-06-30T06:24:15.319Z,21.73
2018-06-30T06:26:44.606Z,20.93
2018-06-30T06:29:14.057Z,20.57
2018-06-30T06:31:43.045Z,19.87
2018-06-30T06:39:57.176Z,23.20
2018-06-30T06:42:26.108Z,21.93
2018-06-30T06:44:54.871Z,19.60
2018-06-30T06:47:23.735Z,20.83
2018-06-30T06:49:53.131Z,18.87
2018-06-30T06:52:22.161Z,20.53
2018-06-30T06:54:52.807Z,21.43
2018-06-30T06:57:21.783Z,17.97
2018-06-30T06:59:50.645Z,24.20
2018-06-30T07:02:19.883Z,19.93
2018-06-30T07:04:48.730Z,20.27
2018-06-30T07:07:18.120Z,20.53
2018-06-30T07:09:47.181Z,20.63
2018-06-30T07:12:16.241Z,20.20
2018-06-30T07:14:45.862Z,19.20
2018-06-30T07:17:15.265Z,17.80
2018-06-30T07:19:44.192Z,16.80
2018-06-30T07:22:13.241Z,14.40
2018-06-30T07:24:42.402Z,14.93
2018-06-30T07:27:11.318Z,14.93
2018-06-30T07:29:52.244Z,15.03
2018-06-30T07:32:21.390Z,11.83
2018-06-30T07:34:50.033Z,12.07
2018-06-30T07:37:19.466Z,11.50
2018-06-30T07:39:48.318Z,11.00
2018-06-30T07:42:17.321Z,10.93
2018-06-30T07:44:48.735Z,11.03
2018-06-30T07:47:17.808Z,11.30
2018-06-30T07:49:46.955Z,12.67
2018-06-30T07:52:15.545Z,9.70
2018-06-30T07:54:51.227Z,10.28
2018-06-30T07:57:20.112Z,9.28
2018-06-30T07:59:49.227Z,12.23
2018-06-30T08:02:18.146Z,14.23
2018-06-30T08:04:47.011Z,9.28
2018-06-30T08:07:16.892Z,9.78
2018-06-30T08:09:47.146Z,10.35
2018-06-30T08:12:16.261Z,8.38
2018-06-30T08:14:45.180Z,8.68
2018-06-30T08:17:14.098Z,11.35
2018-06-30T08:19:43.033Z,8.70
2018-06-30T08:22:13.714Z,9.48
2018-06-30T08:24:43.117Z,10.43
2018-06-30T08:27:12.461Z,8.78
2018-06-30T08:29:41.358Z,8.18
2018-06-30T08:32:10.467Z,8.85
2018-06-30T08:34:39.599Z,11.28
2018-06-30T08:37:09.011Z,8.35
2018-06-30T08:39:38.194Z,11.25
2018-06-30T08:42:07.113Z,9.98
2018-06-30T08:44:36.653Z,10.15
2018-06-30T08:47:27.105Z,7.33
2018-06-30T08:50:01.921Z,12.35
2018-06-30T08:52:31.470Z,7.72
2018-06-30T08:55:00.933Z,7.12
2018-06-30T08:57:39.881Z,7.45
2018-06-30T09:00:09.329Z,9.98
2018-06-30T09:02:44.654Z,9.88
2018-06-30T09:05:14.139Z,6.30
2018-06-30T09:07:43.195Z,9.38
2018-06-30T09:10:12.597Z,7.33
2018-06-30T09:12:41.381Z,5.85
2018-06-30T09:15:11.926Z,5.78
2018-06-30T09:17:43.216Z,8.43
2018-06-30T09:20:13.182Z,9.35
2018-06-30T09:22:42.135Z,6.20
2018-06-30T09:25:11.152Z,6.85
2018-06-30T09:27:40.141Z,6.83
2018-06-30T09:30:10.265Z,8.85
2018-06-30T09:32:39.170Z,7.00
2018-06-30T09:35:08.385Z,7.53
2018-06-30T09:37:38.353Z,6.83
2018-06-30T09:40:07.481Z,7.58
2018-06-30T09:42:36.510Z,5.28
2018-06-30T09:45:06.306Z,5.53
2018-06-30T09:47:34.997Z,5.67
2018-06-30T09:50:04.025Z,8.13
2018-06-30T09:52:32.892Z,5.35
2018-06-30T09:55:01.875Z,5.60
2018-06-30T09:57:30.725Z,5.90
2018-06-30T09:59:59.504Z,7.17
2018-06-30T10:02:28.615Z,5.70
2018-06-30T10:04:58.935Z,6.92
2018-06-30T10:07:28.422Z,7.08
2018-06-30T10:09:57.797Z,4.97
2018-06-30T10:15:35.126Z,5.67
2018-06-30T10:18:04.051Z,5.03
2018-06-30T10:20:33.114Z,6.47
2018-06-30T10:23:02.002Z,4.80
2018-06-30T10:25:31.046Z,5.42
2018-06-30T10:27:59.729Z,4.90
2018-06-30T10:30:28.650Z,4.40
2018-06-30T10:32:57.594Z,4.97
2018-06-30T10:35:27.720Z,6.15
2018-06-30T10:37:57.224Z,4.90
2018-06-30T10:40:26.203Z,4.40
2018-06-30T10:42:55.248Z,4.40
2018-06-30T10:45:24.097Z,5.37
2018-06-30T10:47:53.212Z,6.83
2018-06-30T10:50:22.272Z,5.97
2018-06-30T10:52:51.311Z,3.77
2018-06-30T10:55:20.138Z,5.15
2018-06-30T10:57:50.808Z,4.20
2018-06-30T11:00:19.952Z,4.67
2018-06-30T11:02:49.050Z,3.70
2018-06-30T11:05:17.923Z,4.47
2018-06-30T11:07:49.017Z,4.20
2018-06-30T11:10:18.331Z,5.53
2018-06-30T11:12:47.861Z,7.60
2018-06-30T11:15:16.924Z,4.35
2018-06-30T11:17:47.069Z,4.58
2018-06-30T11:20:16.213Z,6.35
2018-06-30T11:22:45.372Z,6.30
2018-06-30T11:25:14.935Z,5.78
2018-06-30T11:27:43.714Z,3.85
2018-06-30T11:30:12.759Z,6.05
2018-06-30T11:32:42.071Z,4.83
2018-06-30T11:35:11.088Z,3.90
2018-06-30T11:37:39.859Z,6.20
2018-06-30T11:40:08.977Z,4.50
2018-06-30T11:42:37.904Z,4.95
2018-06-30T11:45:07.231Z,5.10
2018-06-30T11:47:36.437Z,4.50
2018-06-30T11:50:06.600Z,6.20
2018-06-30T11:52:36.721Z,5.03
2018-06-30T11:55:05.552Z,5.25
2018-06-30T11:57:34.488Z,11.38
2018-06-30T12:00:03.770Z,3.52
2018-06-30T12:02:32.778Z,4.72
2018-06-30T12:05:01.593Z,7.42
2018-06-30T12:07:30.530Z,7.53
2018-06-30T12:09:59.469Z,6.15
2018-06-30T12:12:28.772Z,4.90
2018-06-30T12:14:57.968Z,3.67
2018-06-30T12:17:26.735Z,4.95
2018-06-30T12:19:55.962Z,3.83
2018-06-30T12:22:33.008Z,7.97
2018-06-30T12:25:01.945Z,3.45
2018-06-30T12:27:31.372Z,4.87
2018-06-30T12:30:02.097Z,4.22
2018-06-30T12:32:30.920Z,3.50
2018-06-30T12:34:59.905Z,3.15
2018-06-30T12:37:28.841Z,4.62
2018-06-30T12:39:57.701Z,7.33
2018-06-30T12:42:26.546Z,3.02
2018-06-30T12:44:55.407Z,5.25
2018-06-30T12:47:24.119Z,3.80
2018-06-30T12:49:53.490Z,5.40
2018-06-30T12:52:22.444Z,3.60
2018-06-30T12:54:51.502Z,6.25
2018-06-30T12:57:20.367Z,2.90
2018-06-30T12:59:49.761Z,4.53
2018-06-30T13:02:19.317Z,2.72
2018-06-30T13:04:48.181Z,6.25
2018-06-30T13:07:17.447Z,4.55
2018-06-30T13:09:46.414Z,5.10
2018-06-30T13:12:15.323Z,4.50
2018-06-30T13:14:45.108Z,5.80
2018-06-30T13:17:13.943Z,6.17
2018-06-30T13:19:42.934Z,4.15
2018-06-30T13:22:12.481Z,3.60
2018-06-30T13:24:41.672Z,3.27
2018-06-30T13:27:10.773Z,5.17
2018-06-30T13:29:40.189Z,3.50
2018-06-30T13:32:09.464Z,4.75
2018-06-30T13:34:38.566Z,5.40
2018-06-30T13:37:07.593Z,3.33
2018-06-30T13:39:36.453Z,5.70
2018-06-30T13:42:05.366Z,5.12
2018-06-30T13:44:34.406Z,3.12
2018-06-30T13:47:03.730Z,4.58
2018-06-30T13:49:32.519Z,3.30
2018-06-30T13:52:01.585Z,2.98
2018-06-30T13:54:30.395Z,5.83
2018-06-30T13:56:59.949Z,3.90
2018-06-30T13:59:29.350Z,3.52
2018-06-30T14:01:58.880Z,4.92
2018-06-30T14:04:27.604Z,2.85
2018-06-30T14:06:56.530Z,3.70
2018-06-30T14:09:25.950Z,3.17
2018-06-30T14:11:55.563Z,3.72
2018-06-30T14:14:24.885Z,4.08
2018-06-30T14:16:53.605Z,6.87
2018-06-30T14:19:22.594Z,4.60
2018-06-30T14:21:51.585Z,5.67
2018-06-30T14:24:20.554Z,4.10
2018-06-30T14:26:49.471Z,4.40
2018-06-30T14:29:18.556Z,3.22
2018-06-30T14:31:47.474Z,4.28
2018-06-30T14:34:16.403Z,3.47
2018-06-30T14:36:45.687Z,3.00
2018-06-30T14:39:14.980Z,4.35
2018-06-30T14:41:44.233Z,4.35
2018-06-30T14:44:13.833Z,2.62
2018-06-30T14:46:42.835Z,2.95
2018-06-30T14:49:11.851Z,3.70
2018-06-30T14:51:41.437Z,3.83
2018-06-30T14:54:10.175Z,4.53
2018-06-30T14:56:39.128Z,4.70
2018-06-30T14:59:08.158Z,5.30
2018-06-30T15:01:37.079Z,4.45
2018-06-30T15:04:05.874Z,5.50
2018-06-30T15:06:34.911Z,3.20
2018-06-30T15:09:04.626Z,3.45
2018-06-30T15:11:33.372Z,3.10
2018-06-30T15:14:02.402Z,5.20
2018-06-30T15:16:31.052Z,3.90
2018-06-30T15:19:00.242Z,3.33
2018-06-30T15:21:29.057Z,4.22
2018-06-30T15:23:58.484Z,3.58
2018-06-30T15:26:27.910Z,3.98
2018-06-30T15:28:57.350Z,3.25
2018-06-30T15:31:26.605Z,5.22
2018-06-30T15:33:55.344Z,5.62
2018-06-30T15:36:24.264Z,3.87
2018-06-30T15:38:53.487Z,3.83
2018-06-30T15:41:22.326Z,3.83
2018-06-30T15:43:51.242Z,3.60
2018-06-30T15:46:20.284Z,4.80
2018-06-30T15:48:49.179Z,3.70
2018-06-30T15:51:18.260Z,4.97
2018-06-30T15:53:47.753Z,4.60
2018-06-30T15:56:16.720Z,4.15
2018-06-30T15:58:45.764Z,4.80
2018-06-30T16:01:14.781Z,4.95
2018-06-30T16:03:49.101Z,5.70
2018-06-30T16:06:17.965Z,3.52
2018-06-30T16:08:47.645Z,3.33
2018-06-30T16:11:16.487Z,4.65
2018-06-30T16:13:45.505Z,6.47
2018-06-30T16:16:14.728Z,4.50
2018-06-30T16:18:43.600Z,3.45
2018-06-30T16:21:12.895Z,3.90
2018-06-30T16:23:42.062Z,3.52
2018-06-30T16:26:12.068Z,3.17
2018-06-30T16:28:41.051Z,5.55
2018-06-30T16:31:10.255Z,3.42
2018-06-30T16:33:39.349Z,5.20
2018-06-30T16:36:08.154Z,5.72
2018-06-30T16:38:36.975Z,3.30
2018-06-30T16:41:06.107Z,4.72
2018-06-30T16:43:35.011Z,5.08
2018-06-30T16:46:04.176Z,4.33
2018-06-30T16:48:32.985Z,4.95
2018-06-30T16:51:02.646Z,5.10
2018-06-30T16:53:31.494Z,3.42
2018-06-30T16:56:00.568Z,4.03
2018-06-30T16:58:29.202Z,4.85
2018-06-30T17:00:58.658Z,4.12
2018-06-30T17:03:27.693Z,5.47
2018-06-30T17:05:56.696Z,3.60
2018-06-30T17:08:26.699Z,3.50
2018-06-30T17:10:56.696Z,4.62
2018-06-30T17:13:25.584Z,3.47
2018-06-30T17:15:54.425Z,4.10
2018-06-30T17:18:23.302Z,6.00
2018-06-30T17:20:55.289Z,5.47
2018-06-30T17:23:24.581Z,3.75
2018-06-30T17:25:53.588Z,6.45
2018-06-30T17:28:22.488Z,6.83
2018-06-30T17:30:51.711Z,10.38
2018-06-30T17:33:20.568Z,6.58
2018-06-30T17:35:50.029Z,6.47
2018-06-30T17:38:19.011Z,4.10
2018-06-30T17:40:48.896Z,6.20
2018-06-30T17:43:17.864Z,5.17
2018-06-30T17:45:46.938Z,5.72
2018-06-30T17:48:15.914Z,3.65
2018-06-30T17:50:44.857Z,5.40
2018-06-30T17:53:14.281Z,5.78
2018-06-30T17:55:44.067Z,5.92
2018-06-30T17:58:13.104Z,6.25
2018-06-30T18:00:43.029Z,5.33
2018-06-30T18:03:12.291Z,5.97
2018-06-30T18:05:41.453Z,4.62
2018-06-30T18:08:10.350Z,4.40
2018-06-30T18:10:39.423Z,7.83
2018-06-30T18:13:08.638Z,4.08
2018-06-30T18:15:38.077Z,7.60
2018-06-30T18:18:07.315Z,5.20
2018-06-30T18:20:36.963Z,5.08
2018-06-30T18:23:05.962Z,11.57
2018-06-30T18:25:34.952Z,4.12
2018-06-30T18:28:03.768Z,6.03
2018-06-30T18:30:33.348Z,4.30
2018-06-30T18:33:03.354Z,8.18
2018-06-30T18:35:32.246Z,8.30
2018-06-30T18:38:01.964Z,4.10
2018-06-30T18:40:31.497Z,6.65
2018-06-30T18:43:01.208Z,6.28
2018-06-30T18:45:30.148Z,6.15
2018-06-30T18:47:58.972Z,6.55
2018-06-30T18:50:28.398Z,5.47
2018-06-30T18:52:57.939Z,4.12
2018-06-30T18:55:27.147Z,4.85
2018-06-30T18:57:56.078Z,5.50
2018-06-30T19:00:24.978Z,7.35
2018-06-30T19:02:53.956Z,9.45
2018-06-30T19:05:23.847Z,6.67
2018-06-30T19:07:53.449Z,6.28
2018-06-30T19:10:22.524Z,4.70
2018-06-30T19:12:51.586Z,4.95
2018-06-30T19:15:20.848Z,6.87
2018-06-30T19:17:50.095Z,5.65
2018-06-30T19:20:19.135Z,4.72
2018-06-30T19:22:48.047Z,5.03
2018-06-30T19:25:16.998Z,8.13
2018-06-30T19:27:46.270Z,8.05
2018-06-30T19:30:15.388Z,4.22
2018-06-30T19:32:44.342Z,2.27
2018-06-30T19:35:13.764Z,4.03
2018-06-30T19:37:43.094Z,3.40
2018-06-30T19:40:12.216Z,5.63
2018-06-30T19:42:41.177Z,3.40
2018-06-30T19:45:10.604Z,3.93
2018-06-30T19:47:39.509Z,3.47
2018-06-30T19:50:08.529Z,5.00
2018-06-30T19:52:38.578Z,4.43
2018-06-30T19:55:08.197Z,14.97
2018-06-30T19:57:37.283Z,7.40
2018-06-30T20:00:07.682Z,4.00
2018-06-30T20:02:37.519Z,8.07
2018-06-30T20:05:06.199Z,2.67
2018-06-30T20:07:40.986Z,3.63
2018-06-30T20:10:09.933Z,3.07
2018-06-30T20:12:38.999Z,6.63
2018-06-30T20:15:08.121Z,5.13
2018-06-30T20:17:37.103Z,3.23
2018-06-30T20:20:06.391Z,3.27
2018-06-30T20:22:36.536Z,4.37
2018-06-30T20:25:05.704Z,3.27
2018-06-30T20:27:34.643Z,3.07
2018-06-30T20:30:03.637Z,3.93
2018-06-30T20:32:32.528Z,3.60
2018-06-30T20:35:01.657Z,4.03
2018-06-30T20:37:32.241Z,6.57
2018-06-30T20:40:14.845Z,5.27
2018-06-30T20:42:45.161Z,3.20
2018-06-30T20:45:15.097Z,3.67
2018-06-30T20:47:47.861Z,3.70
2018-06-30T20:50:25.736Z,2.30
2018-06-30T20:52:59.278Z,3.33
2018-06-30T20:55:29.134Z,2.07
2018-06-30T20:57:58.375Z,2.00
2018-06-30T21:00:27.622Z,3.97
2018-06-30T21:02:58.360Z,1.20
2018-06-30T21:05:28.507Z,5.47
2018-06-30T21:08:10.400Z,3.97
2018-06-30T21:10:40.237Z,2.83
2018-06-30T21:13:09.698Z,1.47
2018-06-30T21:15:38.965Z,1.97
2018-06-30T21:18:08.265Z,3.83
2018-06-30T21:20:37.596Z,5.50
2018-06-30T21:23:09.718Z,3.50
2018-06-30T21:25:39.818Z,4.47
2018-06-30T21:28:12.214Z,3.60
2018-06-30T21:30:41.926Z,2.17
2018-06-30T21:33:13.929Z,3.40
2018-06-30T21:35:44.343Z,0.83
2018-06-30T21:38:14.507Z,1.53
2018-06-30T21:40:43.325Z,1.37
2018-06-30T21:43:13.094Z,1.30
2018-06-30T21:45:44.038Z,0.97
2018-06-30T21:48:14.381Z,1.53
2018-06-30T21:50:44.891Z,1.87
2018-06-30T21:53:14.781Z,3.03
2018-06-30T21:55:44.335Z,4.90
2018-06-30T21:58:16.686Z,3.00
2018-06-30T22:00:51.512Z,2.20
2018-06-30T22:03:28.404Z,2.10
2018-06-30T22:05:58.528Z,2.13
2018-06-30T22:08:28.542Z,3.43
2018-06-30T22:11:05.769Z,1.13
2018-06-30T22:13:34.724Z,1.93
2018-06-30T22:16:04.072Z,3.07
2018-06-30T22:18:33.961Z,2.00
2018-06-30T22:21:03.314Z,1.87
2018-06-30T22:23:33.470Z,3.03
2018-06-30T22:26:03.669Z,1.50
2018-06-30T22:28:32.482Z,2.47
2018-06-30T22:31:01.619Z,2.10
2018-06-30T22:33:30.907Z,1.60
2018-06-30T22:35:59.856Z,0.90
2018-06-30T22:38:28.901Z,3.63
2018-06-30T22:40:58.693Z,1.63
2018-06-30T22:43:27.482Z,1.73
2018-06-30T22:45:56.306Z,1.43
2018-06-30T22:48:25.391Z,7.27
2018-06-30T22:50:55.406Z,2.53
2018-06-30T22:53:25.705Z,2.93
2018-06-30T22:55:55.241Z,3.43
2018-06-30T22:58:23.906Z,3.20
2018-06-30T23:00:52.943Z,2.70
2018-06-30T23:03:21.954Z,3.53
2018-06-30T23:05:51.418Z,2.10
2018-06-30T23:08:20.443Z,1.63
2018-06-30T23:10:50.094Z,4.37
2018-06-30T23:13:19.279Z,2.57
2018-06-30T23:15:49.429Z,1.33
2018-06-30T23:18:20.700Z,4.43
2018-06-30T23:20:49.559Z,1.80
2018-06-30T23:23:18.548Z,0.70
2018-06-30T23:25:47.759Z,2.43
2018-06-30T23:28:16.806Z,1.50
2018-06-30T23:30:46.588Z,1.93
2018-06-30T23:33:20.655Z,2.90
2018-06-30T23:35:52.147Z,1.77
2018-06-30T23:38:21.136Z,1.00
2018-06-30T23:40:50.233Z,2.60
2018-06-30T23:43:19.008Z,2.33
2018-06-30T23:45:47.808Z,2.90
2018-06-30T23:48:16.892Z,1.30
2018-06-30T23:50:45.841Z,5.03
2018-06-30T23:53:14.774Z,3.57
2018-06-30T23:55:43.783Z,0.70
2018-06-30T23:58:12.980Z,1.60
